sensor_id;sensor_type;location;lat;lon;timestamp;P1;durP1;ratioP1;P2;durP2;ratioP2
62030;SDS011;62035;52.094;5.112;2024-01-30T00:01:55;14.73;;;8.90;;
62030;SDS011;62035;52.094;5.112;2024-01-30T00:04:22;17.13;;;9.38;;
62030;SDS011;62035;52.094;5.112;2024-01-30T00:06:51;18.38;;;9.98;;
62030;SDS011;62035;52.094;5.112;2024-01-30T00:09:19;16.73;;;9.60;;
62030;SDS011;62035;52.094;5.112;2024-01-30T00:11:46;15.60;;;9.18;;
62030;SDS011;62035;52.094;5.112;2024-01-30T00:14:14;15.27;;;9.05;;
62030;SDS011;62035;52.094;5.112;2024-01-30T00:16:41;17.02;;;9.98;;
62030;SDS011;62035;52.094;5.112;2024-01-30T00:19:08;16.35;;;9.35;;
62030;SDS011;62035;52.094;5.112;2024-01-30T00:21:35;16.52;;;9.85;;
62030;SDS011;62035;52.094;5.112;2024-01-30T00:24:04;16.58;;;9.30;;
62030;SDS011;62035;52.094;5.112;2024-01-30T00:26:31;14.07;;;9.00;;
62030;SDS011;62035;52.094;5.112;2024-01-30T00:28:59;18.45;;;9.50;;
62030;SDS011;62035;52.094;5.112;2024-01-30T00:31:26;16.90;;;9.45;;
62030;SDS011;62035;52.094;5.112;2024-01-30T00:33:53;17.52;;;8.93;;
62030;SDS011;62035;52.094;5.112;2024-01-30T00:36:20;14.02;;;9.02;;
62030;SDS011;62035;52.094;5.112;2024-01-30T00:38:47;19.20;;;9.40;;
62030;SDS011;62035;52.094;5.112;2024-01-30T00:41:18;20.55;;;9.38;;
62030;SDS011;62035;52.094;5.112;2024-01-30T00:43:45;14.52;;;8.90;;
62030;SDS011;62035;52.094;5.112;2024-01-30T00:46:12;17.70;;;9.35;;
62030;SDS011;62035;52.094;5.112;2024-01-30T00:48:40;13.82;;;9.43;;
62030;SDS011;62035;52.094;5.112;2024-01-30T00:51:07;16.15;;;8.70;;
62030;SDS011;62035;52.094;5.112;2024-01-30T00:53:34;13.57;;;9.00;;
62030;SDS011;62035;52.094;5.112;2024-01-30T00:56:01;14.27;;;8.38;;
62030;SDS011;62035;52.094;5.112;2024-01-30T00:58:30;14.05;;;8.55;;
62030;SDS011;62035;52.094;5.112;2024-01-30T01:00:57;15.73;;;8.45;;
62030;SDS011;62035;52.094;5.112;2024-01-30T01:03:24;14.48;;;8.18;;
62030;SDS011;62035;52.094;5.112;2024-01-30T01:05:52;15.30;;;9.20;;
62030;SDS011;62035;52.094;5.112;2024-01-30T01:08:19;14.63;;;8.43;;
62030;SDS011;62035;52.094;5.112;2024-01-30T01:10:46;17.77;;;9.50;;
62030;SDS011;62035;52.094;5.112;2024-01-30T01:13:12;17.17;;;8.25;;
62030;SDS011;62035;52.094;5.112;2024-01-30T01:15:41;16.20;;;8.52;;
62030;SDS011;62035;52.094;5.112;2024-01-30T01:18:08;15.43;;;8.88;;
62030;SDS011;62035;52.094;5.112;2024-01-30T01:20:35;16.42;;;9.05;;
62030;SDS011;62035;52.094;5.112;2024-01-30T01:23:03;14.23;;;8.88;;
62030;SDS011;62035;52.094;5.112;2024-01-30T01:25:30;14.90;;;8.40;;
62030;SDS011;62035;52.094;5.112;2024-01-30T01:27:57;16.58;;;8.60;;
62030;SDS011;62035;52.094;5.112;2024-01-30T01:30:26;13.68;;;8.57;;
62030;SDS011;62035;52.094;5.112;2024-01-30T01:32:56;14.48;;;8.40;;
62030;SDS011;62035;52.094;5.112;2024-01-30T01:35:26;16.83;;;9.07;;
62030;SDS011;62035;52.094;5.112;2024-01-30T01:37:54;15.57;;;8.40;;
62030;SDS011;62035;52.094;5.112;2024-01-30T01:40:22;12.02;;;8.10;;
62030;SDS011;62035;52.094;5.112;2024-01-30T01:42:49;19.83;;;9.38;;
62030;SDS011;62035;52.094;5.112;2024-01-30T01:45:18;15.45;;;9.70;;
62030;SDS011;62035;52.094;5.112;2024-01-30T01:47:45;13.27;;;8.32;;
62030;SDS011;62035;52.094;5.112;2024-01-30T01:50:16;14.63;;;9.23;;
62030;SDS011;62035;52.094;5.112;2024-01-30T01:52:45;17.63;;;8.30;;
62030;SDS011;62035;52.094;5.112;2024-01-30T01:55:14;13.77;;;8.80;;
62030;SDS011;62035;52.094;5.112;2024-01-30T01:57:43;16.52;;;9.15;;
62030;SDS011;62035;52.094;5.112;2024-01-30T02:00:12;13.57;;;8.82;;
62030;SDS011;62035;52.094;5.112;2024-01-30T02:02:41;14.85;;;8.98;;
62030;SDS011;62035;52.094;5.112;2024-01-30T02:05:10;14.82;;;8.93;;
62030;SDS011;62035;52.094;5.112;2024-01-30T02:07:39;17.65;;;9.80;;
62030;SDS011;62035;52.094;5.112;2024-01-30T02:10:07;15.32;;;9.65;;
62030;SDS011;62035;52.094;5.112;2024-01-30T02:12:34;13.25;;;8.65;;
62030;SDS011;62035;52.094;5.112;2024-01-30T02:15:02;14.30;;;8.13;;
62030;SDS011;62035;52.094;5.112;2024-01-30T02:17:30;18.80;;;9.10;;
62030;SDS011;62035;52.094;5.112;2024-01-30T02:19:58;19.20;;;10.02;;
62030;SDS011;62035;52.094;5.112;2024-01-30T02:22:26;21.35;;;11.23;;
62030;SDS011;62035;52.094;5.112;2024-01-30T02:24:54;17.90;;;9.52;;
62030;SDS011;62035;52.094;5.112;2024-01-30T02:27:21;14.25;;;9.20;;
62030;SDS011;62035;52.094;5.112;2024-01-30T02:29:48;13.85;;;8.93;;
62030;SDS011;62035;52.094;5.112;2024-01-30T02:32:15;14.45;;;9.15;;
62030;SDS011;62035;52.094;5.112;2024-01-30T02:34:43;16.33;;;8.30;;
62030;SDS011;62035;52.094;5.112;2024-01-30T02:37:10;13.05;;;8.10;;
62030;SDS011;62035;52.094;5.112;2024-01-30T02:39:38;17.67;;;8.98;;
62030;SDS011;62035;52.094;5.112;2024-01-30T02:42:05;17.55;;;10.40;;
62030;SDS011;62035;52.094;5.112;2024-01-30T02:44:33;18.50;;;9.82;;
62030;SDS011;62035;52.094;5.112;2024-01-30T02:47:00;15.93;;;9.00;;
62030;SDS011;62035;52.094;5.112;2024-01-30T02:49:27;15.05;;;9.23;;
62030;SDS011;62035;52.094;5.112;2024-01-30T02:51:54;12.60;;;7.78;;
62030;SDS011;62035;52.094;5.112;2024-01-30T02:54:22;16.95;;;8.48;;
62030;SDS011;62035;52.094;5.112;2024-01-30T02:56:51;16.90;;;8.35;;
62030;SDS011;62035;52.094;5.112;2024-01-30T02:59:18;16.42;;;8.65;;
62030;SDS011;62035;52.094;5.112;2024-01-30T03:01:45;15.00;;;8.38;;
62030;SDS011;62035;52.094;5.112;2024-01-30T03:04:13;16.38;;;8.60;;
62030;SDS011;62035;52.094;5.112;2024-01-30T03:06:44;15.90;;;8.45;;
62030;SDS011;62035;52.094;5.112;2024-01-30T03:09:12;17.77;;;8.82;;
62030;SDS011;62035;52.094;5.112;2024-01-30T03:11:40;15.75;;;8.63;;
62030;SDS011;62035;52.094;5.112;2024-01-30T03:14:08;15.30;;;8.55;;
62030;SDS011;62035;52.094;5.112;2024-01-30T03:16:37;18.02;;;8.80;;
62030;SDS011;62035;52.094;5.112;2024-01-30T03:19:05;13.55;;;8.35;;
62030;SDS011;62035;52.094;5.112;2024-01-30T03:21:33;13.20;;;8.35;;
62030;SDS011;62035;52.094;5.112;2024-01-30T03:24:00;14.18;;;8.30;;
62030;SDS011;62035;52.094;5.112;2024-01-30T03:26:27;15.10;;;8.40;;
62030;SDS011;62035;52.094;5.112;2024-01-30T03:28:54;15.27;;;8.27;;
62030;SDS011;62035;52.094;5.112;2024-01-30T03:31:23;16.75;;;8.95;;
62030;SDS011;62035;52.094;5.112;2024-01-30T03:33:50;13.68;;;8.10;;
62030;SDS011;62035;52.094;5.112;2024-01-30T03:36:17;13.50;;;8.38;;
62030;SDS011;62035;52.094;5.112;2024-01-30T03:38:44;12.80;;;8.32;;
62030;SDS011;62035;52.094;5.112;2024-01-30T03:41:12;11.52;;;8.27;;
62030;SDS011;62035;52.094;5.112;2024-01-30T03:43:39;16.60;;;9.07;;
62030;SDS011;62035;52.094;5.112;2024-01-30T03:46:07;15.18;;;8.60;;
62030;SDS011;62035;52.094;5.112;2024-01-30T03:48:35;12.18;;;7.95;;
62030;SDS011;62035;52.094;5.112;2024-01-30T03:51:03;14.32;;;8.35;;
62030;SDS011;62035;52.094;5.112;2024-01-30T03:53:30;12.82;;;7.78;;
62030;SDS011;62035;52.094;5.112;2024-01-30T03:55:57;13.63;;;8.35;;
62030;SDS011;62035;52.094;5.112;2024-01-30T03:58:25;14.70;;;8.02;;
62030;SDS011;62035;52.094;5.112;2024-01-30T04:00:52;13.70;;;8.60;;
62030;SDS011;62035;52.094;5.112;2024-01-30T04:03:19;11.73;;;7.25;;
62030;SDS011;62035;52.094;5.112;2024-01-30T04:05:48;15.80;;;8.13;;
62030;SDS011;62035;52.094;5.112;2024-01-30T04:08:15;14.27;;;7.88;;
62030;SDS011;62035;52.094;5.112;2024-01-30T04:10:42;14.93;;;7.60;;
62030;SDS011;62035;52.094;5.112;2024-01-30T04:13:10;14.48;;;8.43;;
62030;SDS011;62035;52.094;5.112;2024-01-30T04:15:37;15.23;;;7.93;;
62030;SDS011;62035;52.094;5.112;2024-01-30T04:18:04;14.77;;;8.20;;
62030;SDS011;62035;52.094;5.112;2024-01-30T04:20:32;12.60;;;7.20;;
62030;SDS011;62035;52.094;5.112;2024-01-30T04:23:00;13.98;;;8.38;;
62030;SDS011;62035;52.094;5.112;2024-01-30T04:25:27;13.45;;;7.95;;
62030;SDS011;62035;52.094;5.112;2024-01-30T04:27:55;14.32;;;7.93;;
62030;SDS011;62035;52.094;5.112;2024-01-30T04:30:22;10.75;;;7.05;;
62030;SDS011;62035;52.094;5.112;2024-01-30T04:32:52;11.13;;;7.13;;
62030;SDS011;62035;52.094;5.112;2024-01-30T04:35:19;15.65;;;7.07;;
62030;SDS011;62035;52.094;5.112;2024-01-30T04:37:49;10.63;;;6.95;;
62030;SDS011;62035;52.094;5.112;2024-01-30T04:40:17;12.68;;;6.93;;
62030;SDS011;62035;52.094;5.112;2024-01-30T04:42:44;19.40;;;7.53;;
62030;SDS011;62035;52.094;5.112;2024-01-30T04:45:12;13.10;;;7.35;;
62030;SDS011;62035;52.094;5.112;2024-01-30T04:47:39;13.15;;;7.43;;
62030;SDS011;62035;52.094;5.112;2024-01-30T04:50:07;14.82;;;7.60;;
62030;SDS011;62035;52.094;5.112;2024-01-30T04:52:35;13.00;;;7.18;;
62030;SDS011;62035;52.094;5.112;2024-01-30T04:55:03;15.55;;;7.30;;
62030;SDS011;62035;52.094;5.112;2024-01-30T04:57:31;13.10;;;7.03;;
62030;SDS011;62035;52.094;5.112;2024-01-30T04:59:59;12.25;;;7.13;;
62030;SDS011;62035;52.094;5.112;2024-01-30T05:02:26;11.52;;;6.47;;
62030;SDS011;62035;52.094;5.112;2024-01-30T05:04:54;12.32;;;6.95;;
62030;SDS011;62035;52.094;5.112;2024-01-30T05:07:21;10.70;;;7.03;;
62030;SDS011;62035;52.094;5.112;2024-01-30T05:09:48;14.93;;;7.30;;
62030;SDS011;62035;52.094;5.112;2024-01-30T05:12:15;11.82;;;7.05;;
62030;SDS011;62035;52.094;5.112;2024-01-30T05:14:44;12.38;;;6.82;;
62030;SDS011;62035;52.094;5.112;2024-01-30T05:17:11;12.45;;;7.03;;
62030;SDS011;62035;52.094;5.112;2024-01-30T05:19:39;12.95;;;7.53;;
62030;SDS011;62035;52.094;5.112;2024-01-30T05:22:06;13.45;;;6.85;;
62030;SDS011;62035;52.094;5.112;2024-01-30T05:24:33;10.57;;;7.10;;
62030;SDS011;62035;52.094;5.112;2024-01-30T05:27:00;10.90;;;6.60;;
62030;SDS011;62035;52.094;5.112;2024-01-30T05:29:28;13.40;;;6.75;;
62030;SDS011;62035;52.094;5.112;2024-01-30T05:31:56;12.40;;;6.60;;
62030;SDS011;62035;52.094;5.112;2024-01-30T05:34:23;12.57;;;6.72;;
62030;SDS011;62035;52.094;5.112;2024-01-30T05:36:51;13.75;;;7.28;;
62030;SDS011;62035;52.094;5.112;2024-01-30T05:39:18;11.98;;;7.10;;
62030;SDS011;62035;52.094;5.112;2024-01-30T05:41:45;15.55;;;6.78;;
62030;SDS011;62035;52.094;5.112;2024-01-30T05:44:12;13.23;;;7.07;;
62030;SDS011;62035;52.094;5.112;2024-01-30T05:46:40;17.58;;;7.75;;
62030;SDS011;62035;52.094;5.112;2024-01-30T05:49:08;12.52;;;6.38;;
62030;SDS011;62035;52.094;5.112;2024-01-30T05:51:35;12.10;;;7.43;;
62030;SDS011;62035;52.094;5.112;2024-01-30T05:54:03;10.80;;;6.15;;
62030;SDS011;62035;52.094;5.112;2024-01-30T05:56:30;11.93;;;6.85;;
62030;SDS011;62035;52.094;5.112;2024-01-30T05:58:57;11.07;;;6.43;;
62030;SDS011;62035;52.094;5.112;2024-01-30T06:01:24;10.88;;;6.70;;
62030;SDS011;62035;52.094;5.112;2024-01-30T06:03:51;11.18;;;6.70;;
62030;SDS011;62035;52.094;5.112;2024-01-30T06:06:20;9.80;;;6.63;;
62030;SDS011;62035;52.094;5.112;2024-01-30T06:08:47;11.48;;;6.80;;
62030;SDS011;62035;52.094;5.112;2024-01-30T06:11:14;13.95;;;6.25;;
62030;SDS011;62035;52.094;5.112;2024-01-30T06:13:41;11.82;;;6.25;;
62030;SDS011;62035;52.094;5.112;2024-01-30T06:16:09;10.25;;;6.05;;
62030;SDS011;62035;52.094;5.112;2024-01-30T06:18:37;12.55;;;6.13;;
62030;SDS011;62035;52.094;5.112;2024-01-30T06:21:04;12.32;;;6.35;;
62030;SDS011;62035;52.094;5.112;2024-01-30T06:23:33;10.25;;;6.07;;
62030;SDS011;62035;52.094;5.112;2024-01-30T06:26:00;14.82;;;6.53;;
62030;SDS011;62035;52.094;5.112;2024-01-30T06:28:27;11.25;;;6.18;;
62030;SDS011;62035;52.094;5.112;2024-01-30T06:30:55;12.68;;;6.65;;
62030;SDS011;62035;52.094;5.112;2024-01-30T06:33:22;14.35;;;6.68;;
62030;SDS011;62035;52.094;5.112;2024-01-30T06:35:50;10.82;;;6.57;;
62030;SDS011;62035;52.094;5.112;2024-01-30T06:38:17;9.65;;;5.88;;
62030;SDS011;62035;52.094;5.112;2024-01-30T06:40:46;12.82;;;6.68;;
62030;SDS011;62035;52.094;5.112;2024-01-30T06:43:13;12.75;;;6.00;;
62030;SDS011;62035;52.094;5.112;2024-01-30T06:45:40;10.13;;;6.30;;
62030;SDS011;62035;52.094;5.112;2024-01-30T06:48:08;10.70;;;6.38;;
62030;SDS011;62035;52.094;5.112;2024-01-30T06:50:35;11.85;;;6.72;;
62030;SDS011;62035;52.094;5.112;2024-01-30T06:53:02;12.77;;;6.35;;
62030;SDS011;62035;52.094;5.112;2024-01-30T06:55:30;13.30;;;6.90;;
62030;SDS011;62035;52.094;5.112;2024-01-30T06:57:58;12.98;;;6.60;;
62030;SDS011;62035;52.094;5.112;2024-01-30T07:00:25;10.50;;;6.00;;
62030;SDS011;62035;52.094;5.112;2024-01-30T07:02:52;12.93;;;6.03;;
62030;SDS011;62035;52.094;5.112;2024-01-30T07:05:20;10.95;;;6.57;;
62030;SDS011;62035;52.094;5.112;2024-01-30T07:07:47;12.73;;;6.95;;
62030;SDS011;62035;52.094;5.112;2024-01-30T07:10:14;12.25;;;6.07;;
62030;SDS011;62035;52.094;5.112;2024-01-30T07:12:42;15.80;;;6.88;;
62030;SDS011;62035;52.094;5.112;2024-01-30T07:15:11;14.32;;;6.65;;
62030;SDS011;62035;52.094;5.112;2024-01-30T07:17:40;9.88;;;5.88;;
62030;SDS011;62035;52.094;5.112;2024-01-30T07:20:07;12.93;;;6.07;;
62030;SDS011;62035;52.094;5.112;2024-01-30T07:22:36;14.38;;;6.80;;
62030;SDS011;62035;52.094;5.112;2024-01-30T07:25:03;13.88;;;6.35;;
62030;SDS011;62035;52.094;5.112;2024-01-30T07:27:31;12.07;;;6.00;;
62030;SDS011;62035;52.094;5.112;2024-01-30T07:29:58;12.60;;;6.30;;
62030;SDS011;62035;52.094;5.112;2024-01-30T07:32:27;13.65;;;6.50;;
62030;SDS011;62035;52.094;5.112;2024-01-30T07:34:54;14.68;;;6.68;;
62030;SDS011;62035;52.094;5.112;2024-01-30T07:37:21;12.57;;;6.05;;
62030;SDS011;62035;52.094;5.112;2024-01-30T07:39:49;14.07;;;6.80;;
62030;SDS011;62035;52.094;5.112;2024-01-30T07:42:16;16.27;;;6.43;;
62030;SDS011;62035;52.094;5.112;2024-01-30T07:44:45;11.23;;;6.38;;
62030;SDS011;62035;52.094;5.112;2024-01-30T07:47:12;10.98;;;5.93;;
62030;SDS011;62035;52.094;5.112;2024-01-30T07:49:41;11.52;;;5.75;;
62030;SDS011;62035;52.094;5.112;2024-01-30T07:52:08;12.77;;;6.30;;
62030;SDS011;62035;52.094;5.112;2024-01-30T07:54:50;12.70;;;5.75;;
62030;SDS011;62035;52.094;5.112;2024-01-30T07:57:18;12.57;;;6.57;;
62030;SDS011;62035;52.094;5.112;2024-01-30T07:59:45;16.20;;;6.85;;
62030;SDS011;62035;52.094;5.112;2024-01-30T08:02:12;15.35;;;7.25;;
62030;SDS011;62035;52.094;5.112;2024-01-30T08:04:41;13.63;;;6.03;;
62030;SDS011;62035;52.094;5.112;2024-01-30T08:07:08;16.45;;;6.40;;
62030;SDS011;62035;52.094;5.112;2024-01-30T08:09:36;12.05;;;6.38;;
62030;SDS011;62035;52.094;5.112;2024-01-30T08:12:03;12.60;;;5.70;;
62030;SDS011;62035;52.094;5.112;2024-01-30T08:14:31;10.50;;;6.15;;
62030;SDS011;62035;52.094;5.112;2024-01-30T08:16:58;14.75;;;6.38;;
62030;SDS011;62035;52.094;5.112;2024-01-30T08:19:25;13.82;;;7.00;;
62030;SDS011;62035;52.094;5.112;2024-01-30T08:21:54;18.40;;;6.85;;
62030;SDS011;62035;52.094;5.112;2024-01-30T08:24:21;13.77;;;6.82;;
62030;SDS011;62035;52.094;5.112;2024-01-30T08:26:48;14.55;;;6.13;;
62030;SDS011;62035;52.094;5.112;2024-01-30T08:29:15;13.68;;;6.97;;
62030;SDS011;62035;52.094;5.112;2024-01-30T08:31:43;14.68;;;6.50;;
62030;SDS011;62035;52.094;5.112;2024-01-30T08:34:11;17.42;;;6.70;;
62030;SDS011;62035;52.094;5.112;2024-01-30T08:36:39;12.38;;;6.13;;
62030;SDS011;62035;52.094;5.112;2024-01-30T08:39:07;13.00;;;6.45;;
62030;SDS011;62035;52.094;5.112;2024-01-30T08:41:35;13.05;;;6.85;;
62030;SDS011;62035;52.094;5.112;2024-01-30T08:44:02;13.70;;;6.43;;
62030;SDS011;62035;52.094;5.112;2024-01-30T08:46:30;18.73;;;8.75;;
62030;SDS011;62035;52.094;5.112;2024-01-30T08:48:57;13.40;;;6.47;;
62030;SDS011;62035;52.094;5.112;2024-01-30T08:51:24;16.33;;;6.72;;
62030;SDS011;62035;52.094;5.112;2024-01-30T08:53:51;12.60;;;6.38;;
62030;SDS011;62035;52.094;5.112;2024-01-30T08:56:21;14.88;;;6.13;;
62030;SDS011;62035;52.094;5.112;2024-01-30T08:58:48;15.13;;;6.63;;
62030;SDS011;62035;52.094;5.112;2024-01-30T09:01:15;13.02;;;6.70;;
62030;SDS011;62035;52.094;5.112;2024-01-30T09:03:42;13.38;;;6.22;;
62030;SDS011;62035;52.094;5.112;2024-01-30T09:06:12;13.65;;;6.22;;
62030;SDS011;62035;52.094;5.112;2024-01-30T09:08:39;14.48;;;6.15;;
62030;SDS011;62035;52.094;5.112;2024-01-30T09:11:08;12.25;;;6.47;;
62030;SDS011;62035;52.094;5.112;2024-01-30T09:13:37;14.57;;;5.60;;
62030;SDS011;62035;52.094;5.112;2024-01-30T09:16:05;17.30;;;6.90;;
62030;SDS011;62035;52.094;5.112;2024-01-30T09:18:32;16.60;;;6.63;;
62030;SDS011;62035;52.094;5.112;2024-01-30T09:21:00;16.60;;;7.15;;
62030;SDS011;62035;52.094;5.112;2024-01-30T09:23:27;14.27;;;6.85;;
62030;SDS011;62035;52.094;5.112;2024-01-30T09:25:55;14.07;;;6.70;;
62030;SDS011;62035;52.094;5.112;2024-01-30T09:28:22;15.90;;;6.47;;
62030;SDS011;62035;52.094;5.112;2024-01-30T09:30:51;18.15;;;6.40;;
62030;SDS011;62035;52.094;5.112;2024-01-30T09:33:18;17.23;;;6.63;;
62030;SDS011;62035;52.094;5.112;2024-01-30T09:35:45;10.02;;;6.18;;
62030;SDS011;62035;52.094;5.112;2024-01-30T09:38:12;10.52;;;6.18;;
62030;SDS011;62035;52.094;5.112;2024-01-30T09:40:40;17.75;;;7.22;;
62030;SDS011;62035;52.094;5.112;2024-01-30T09:43:07;12.05;;;6.90;;
62030;SDS011;62035;52.094;5.112;2024-01-30T09:45:35;14.45;;;6.53;;
62030;SDS011;62035;52.094;5.112;2024-01-30T09:48:04;14.93;;;6.82;;
62030;SDS011;62035;52.094;5.112;2024-01-30T09:50:32;10.60;;;6.90;;
62030;SDS011;62035;52.094;5.112;2024-01-30T09:53:01;19.27;;;7.70;;
62030;SDS011;62035;52.094;5.112;2024-01-30T09:55:29;14.93;;;6.40;;
62030;SDS011;62035;52.094;5.112;2024-01-30T09:57:56;22.45;;;7.40;;
62030;SDS011;62035;52.094;5.112;2024-01-30T10:00:23;14.60;;;6.53;;
62030;SDS011;62035;52.094;5.112;2024-01-30T10:02:52;16.80;;;6.60;;
62030;SDS011;62035;52.094;5.112;2024-01-30T10:05:21;18.13;;;6.55;;
62030;SDS011;62035;52.094;5.112;2024-01-30T10:07:53;14.57;;;6.70;;
62030;SDS011;62035;52.094;5.112;2024-01-30T10:10:21;11.60;;;5.90;;
62030;SDS011;62035;52.094;5.112;2024-01-30T10:12:49;12.68;;;6.07;;
62030;SDS011;62035;52.094;5.112;2024-01-30T10:15:17;14.45;;;6.28;;
62030;SDS011;62035;52.094;5.112;2024-01-30T10:17:44;12.88;;;5.78;;
62030;SDS011;62035;52.094;5.112;2024-01-30T10:20:12;11.10;;;6.10;;
62030;SDS011;62035;52.094;5.112;2024-01-30T10:22:41;10.10;;;5.63;;
62030;SDS011;62035;52.094;5.112;2024-01-30T10:25:10;12.82;;;6.10;;
62030;SDS011;62035;52.094;5.112;2024-01-30T10:27:39;13.07;;;6.15;;
62030;SDS011;62035;52.094;5.112;2024-01-30T10:30:07;13.30;;;6.25;;
62030;SDS011;62035;52.094;5.112;2024-01-30T10:32:34;14.02;;;6.43;;
62030;SDS011;62035;52.094;5.112;2024-01-30T10:35:02;10.63;;;6.72;;
62030;SDS011;62035;52.094;5.112;2024-01-30T10:37:30;15.90;;;5.80;;
62030;SDS011;62035;52.094;5.112;2024-01-30T10:40:01;14.30;;;5.95;;
62030;SDS011;62035;52.094;5.112;2024-01-30T10:42:31;13.05;;;6.55;;
62030;SDS011;62035;52.094;5.112;2024-01-30T10:45:00;18.88;;;6.90;;
62030;SDS011;62035;52.094;5.112;2024-01-30T10:47:33;10.63;;;6.20;;
62030;SDS011;62035;52.094;5.112;2024-01-30T10:50:02;13.43;;;5.97;;
62030;SDS011;62035;52.094;5.112;2024-01-30T10:52:30;11.85;;;5.85;;
62030;SDS011;62035;52.094;5.112;2024-01-30T10:55:00;9.65;;;5.32;;
62030;SDS011;62035;52.094;5.112;2024-01-30T10:57:29;9.50;;;5.40;;
62030;SDS011;62035;52.094;5.112;2024-01-30T10:59:57;9.40;;;5.25;;
62030;SDS011;62035;52.094;5.112;2024-01-30T11:02:26;14.65;;;5.38;;
62030;SDS011;62035;52.094;5.112;2024-01-30T11:04:55;12.15;;;5.03;;
62030;SDS011;62035;52.094;5.112;2024-01-30T11:07:24;8.95;;;4.10;;
62030;SDS011;62035;52.094;5.112;2024-01-30T11:09:52;16.73;;;4.43;;
62030;SDS011;62035;52.094;5.112;2024-01-30T11:12:24;8.63;;;4.00;;
62030;SDS011;62035;52.094;5.112;2024-01-30T11:15:01;10.55;;;3.83;;
62030;SDS011;62035;52.094;5.112;2024-01-30T11:17:39;8.43;;;3.03;;
62030;SDS011;62035;52.094;5.112;2024-01-30T11:20:10;8.38;;;2.90;;
62030;SDS011;62035;52.094;5.112;2024-01-30T11:22:42;10.45;;;2.92;;
62030;SDS011;62035;52.094;5.112;2024-01-30T11:25:12;8.25;;;2.60;;
62030;SDS011;62035;52.094;5.112;2024-01-30T11:27:42;5.43;;;2.50;;
62030;SDS011;62035;52.094;5.112;2024-01-30T11:30:10;11.10;;;2.70;;
62030;SDS011;62035;52.094;5.112;2024-01-30T11:32:37;7.63;;;2.17;;
62030;SDS011;62035;52.094;5.112;2024-01-30T11:35:05;11.27;;;2.25;;
62030;SDS011;62035;52.094;5.112;2024-01-30T11:37:36;8.20;;;2.10;;
62030;SDS011;62035;52.094;5.112;2024-01-30T11:40:05;5.80;;;2.42;;
62030;SDS011;62035;52.094;5.112;2024-01-30T11:42:34;6.72;;;2.08;;
62030;SDS011;62035;52.094;5.112;2024-01-30T11:45:06;6.57;;;2.95;;
62030;SDS011;62035;52.094;5.112;2024-01-30T11:47:34;5.65;;;2.80;;
62030;SDS011;62035;52.094;5.112;2024-01-30T11:50:02;8.52;;;3.00;;
62030;SDS011;62035;52.094;5.112;2024-01-30T11:52:32;5.95;;;2.97;;
62030;SDS011;62035;52.094;5.112;2024-01-30T11:55:00;6.38;;;2.80;;
62030;SDS011;62035;52.094;5.112;2024-01-30T11:57:28;6.97;;;2.67;;
62030;SDS011;62035;52.094;5.112;2024-01-30T11:59:55;9.02;;;3.15;;
62030;SDS011;62035;52.094;5.112;2024-01-30T12:02:24;10.13;;;2.90;;
62030;SDS011;62035;52.094;5.112;2024-01-30T12:04:51;9.18;;;2.20;;
62030;SDS011;62035;52.094;5.112;2024-01-30T12:07:18;12.63;;;2.40;;
62030;SDS011;62035;52.094;5.112;2024-01-30T12:09:51;10.23;;;2.67;;
62030;SDS011;62035;52.094;5.112;2024-01-30T12:12:19;6.78;;;2.38;;
62030;SDS011;62035;52.094;5.112;2024-01-30T12:14:49;7.68;;;2.03;;
62030;SDS011;62035;52.094;5.112;2024-01-30T12:17:24;8.40;;;2.10;;
62030;SDS011;62035;52.094;5.112;2024-01-30T12:20:02;6.88;;;2.08;;
62030;SDS011;62035;52.094;5.112;2024-01-30T12:22:29;8.43;;;2.15;;
62030;SDS011;62035;52.094;5.112;2024-01-30T12:24:57;7.30;;;2.20;;
62030;SDS011;62035;52.094;5.112;2024-01-30T12:27:24;7.63;;;2.05;;
62030;SDS011;62035;52.094;5.112;2024-01-30T12:29:55;5.10;;;2.17;;
62030;SDS011;62035;52.094;5.112;2024-01-30T12:32:24;9.05;;;2.10;;
62030;SDS011;62035;52.094;5.112;2024-01-30T12:34:54;5.70;;;2.05;;
62030;SDS011;62035;52.094;5.112;2024-01-30T12:37:22;10.70;;;2.95;;
62030;SDS011;62035;52.094;5.112;2024-01-30T12:39:51;7.22;;;2.40;;
62030;SDS011;62035;52.094;5.112;2024-01-30T12:42:20;6.97;;;2.33;;
62030;SDS011;62035;52.094;5.112;2024-01-30T12:44:48;9.82;;;2.17;;
62030;SDS011;62035;52.094;5.112;2024-01-30T12:47:15;8.45;;;2.22;;
62030;SDS011;62035;52.094;5.112;2024-01-30T12:49:44;8.50;;;2.15;;
62030;SDS011;62035;52.094;5.112;2024-01-30T12:52:11;5.03;;;1.63;;
62030;SDS011;62035;52.094;5.112;2024-01-30T12:54:39;3.67;;;1.60;;
62030;SDS011;62035;52.094;5.112;2024-01-30T12:57:07;7.95;;;1.40;;
62030;SDS011;62035;52.094;5.112;2024-01-30T12:59:34;5.15;;;1.50;;
62030;SDS011;62035;52.094;5.112;2024-01-30T13:02:01;5.95;;;1.77;;
62030;SDS011;62035;52.094;5.112;2024-01-30T13:04:29;4.50;;;1.40;;
62030;SDS011;62035;52.094;5.112;2024-01-30T13:06:57;7.50;;;1.40;;
62030;SDS011;62035;52.094;5.112;2024-01-30T13:09:26;4.57;;;1.20;;
62030;SDS011;62035;52.094;5.112;2024-01-30T13:11:53;5.95;;;1.20;;
62030;SDS011;62035;52.094;5.112;2024-01-30T13:14:20;5.78;;;1.45;;
62030;SDS011;62035;52.094;5.112;2024-01-30T13:16:48;2.85;;;1.38;;
62030;SDS011;62035;52.094;5.112;2024-01-30T13:19:15;5.72;;;1.50;;
62030;SDS011;62035;52.094;5.112;2024-01-30T13:21:42;4.93;;;1.52;;
62030;SDS011;62035;52.094;5.112;2024-01-30T13:24:11;10.43;;;1.70;;
62030;SDS011;62035;52.094;5.112;2024-01-30T13:26:38;6.18;;;1.40;;
62030;SDS011;62035;52.094;5.112;2024-01-30T13:29:05;8.43;;;1.98;;
62030;SDS011;62035;52.094;5.112;2024-01-30T13:31:32;6.97;;;1.95;;
62030;SDS011;62035;52.094;5.112;2024-01-30T13:34:00;7.30;;;2.08;;
62030;SDS011;62035;52.094;5.112;2024-01-30T13:36:27;6.53;;;1.40;;
62030;SDS011;62035;52.094;5.112;2024-01-30T13:38:54;4.38;;;1.20;;
62030;SDS011;62035;52.094;5.112;2024-01-30T13:41:23;6.60;;;1.50;;
62030;SDS011;62035;52.094;5.112;2024-01-30T13:43:50;4.22;;;1.35;;
62030;SDS011;62035;52.094;5.112;2024-01-30T13:46:17;6.20;;;1.65;;
62030;SDS011;62035;52.094;5.112;2024-01-30T13:48:44;5.95;;;1.42;;
62030;SDS011;62035;52.094;5.112;2024-01-30T13:51:12;7.47;;;1.90;;
62030;SDS011;62035;52.094;5.112;2024-01-30T13:53:39;9.40;;;2.45;;
62030;SDS011;62035;52.094;5.112;2024-01-30T13:56:06;6.85;;;1.80;;
62030;SDS011;62035;52.094;5.112;2024-01-30T13:58:35;5.32;;;1.50;;
62030;SDS011;62035;52.094;5.112;2024-01-30T14:01:02;6.78;;;1.50;;
62030;SDS011;62035;52.094;5.112;2024-01-30T14:03:30;7.15;;;2.15;;
62030;SDS011;62035;52.094;5.112;2024-01-30T14:05:57;5.07;;;1.45;;
62030;SDS011;62035;52.094;5.112;2024-01-30T14:08:25;6.90;;;1.70;;
62030;SDS011;62035;52.094;5.112;2024-01-30T14:10:53;9.88;;;1.65;;
62030;SDS011;62035;52.094;5.112;2024-01-30T14:13:21;7.43;;;2.05;;
62030;SDS011;62035;52.094;5.112;2024-01-30T14:15:52;4.28;;;1.50;;
62030;SDS011;62035;52.094;5.112;2024-01-30T14:18:19;7.22;;;1.48;;
62030;SDS011;62035;52.094;5.112;2024-01-30T14:20:47;3.53;;;1.70;;
62030;SDS011;62035;52.094;5.112;2024-01-30T14:23:17;4.93;;;1.92;;
62030;SDS011;62035;52.094;5.112;2024-01-30T14:25:45;8.17;;;1.77;;
62030;SDS011;62035;52.094;5.112;2024-01-30T14:28:12;6.93;;;2.00;;
62030;SDS011;62035;52.094;5.112;2024-01-30T14:30:40;8.90;;;2.90;;
62030;SDS011;62035;52.094;5.112;2024-01-30T14:33:08;6.60;;;2.28;;
62030;SDS011;62035;52.094;5.112;2024-01-30T14:35:35;7.45;;;2.92;;
62030;SDS011;62035;52.094;5.112;2024-01-30T14:38:03;10.18;;;2.70;;
62030;SDS011;62035;52.094;5.112;2024-01-30T14:40:33;9.07;;;3.00;;
62030;SDS011;62035;52.094;5.112;2024-01-30T14:43:00;12.43;;;3.85;;